sensor_id;sensor_type;location;lat;lon;timestamp;pressure;altitude;pressure_sealevel;temperature;humidity
37878;BME280;23715;53.652;8.516;2023-01-26T00:01:42;102724.05;;;1.38;100.00
37878;BME280;23715;53.652;8.516;2023-01-26T00:06:43;102723.19;;;1.63;100.00
37878;BME280;23715;53.652;8.516;2023-01-26T00:11:43;102713.09;;;1.60;100.00
37878;BME280;23715;53.652;8.516;2023-01-26T00:16:43;102701.74;;;1.50;100.00
37878;BME280;23715;53.652;8.516;2023-01-26T00:21:44;102695.34;;;1.63;100.00
37878;BME280;23715;53.652;8.516;2023-01-26T00:26:44;102693.79;;;1.74;100.00
37878;BME280;23715;53.652;8.516;2023-01-26T00:31:44;102684.44;;;1.54;100.00
37878;BME280;23715;53.652;8.516;2023-01-26T00:36:46;102679.88;;;1.61;100.00
37878;BME280;23715;53.652;8.516;2023-01-26T00:41:46;102678.76;;;1.52;100.00
37878;BME280;23715;53.652;8.516;2023-01-26T00:47:09;102664.72;;;1.45;100.00
37878;BME280;23715;53.652;8.516;2023-01-26T00:52:11;102670.17;;;1.38;100.00
37878;BME280;23715;53.652;8.516;2023-01-26T00:57:12;102673.06;;;1.48;100.00
37878;BME280;23715;53.652;8.516;2023-01-26T01:02:13;102671.09;;;1.82;100.00
37878;BME280;23715;53.652;8.516;2023-01-26T01:07:16;102669.91;;;1.74;100.00
37878;BME280;23715;53.652;8.516;2023-01-26T01:12:16;102672.06;;;1.78;100.00
37878;BME280;23715;53.652;8.516;2023-01-26T01:17:16;102679.05;;;1.82;100.00
37878;BME280;23715;53.652;8.516;2023-01-26T01:22:17;102657.78;;;1.85;100.00
37878;BME280;23715;53.652;8.516;2023-01-26T01:27:18;102647.96;;;1.67;100.00
37878;BME280;23715;53.652;8.516;2023-01-26T01:32:18;102646.16;;;1.90;100.00
37878;BME280;23715;53.652;8.516;2023-01-26T01:37:19;102643.53;;;1.89;100.00
37878;BME280;23715;53.652;8.516;2023-01-26T01:42:18;102648.33;;;2.13;100.00
37878;BME280;23715;53.652;8.516;2023-01-26T01:47:21;102646.56;;;2.12;100.00
37878;BME280;23715;53.652;8.516;2023-01-26T01:52:27;102631.76;;;2.02;100.00
37878;BME280;23715;53.652;8.516;2023-01-26T01:57:30;102636.53;;;2.27;100.00
37878;BME280;23715;53.652;8.516;2023-01-26T02:02:33;102640.30;;;2.17;100.00
37878;BME280;23715;53.652;8.516;2023-01-26T02:07:34;102636.20;;;2.21;100.00
37878;BME280;23715;53.652;8.516;2023-01-26T02:12:36;102626.55;;;2.19;100.00
37878;BME280;23715;53.652;8.516;2023-01-26T02:17:37;102627.59;;;2.50;100.00
37878;BME280;23715;53.652;8.516;2023-01-26T02:23:01;102618.02;;;2.43;100.00
37878;BME280;23715;53.652;8.516;2023-01-26T02:27:57;102615.41;;;2.22;100.00
37878;BME280;23715;53.652;8.516;2023-01-26T02:32:57;102618.78;;;2.29;100.00
37878;BME280;23715;53.652;8.516;2023-01-26T02:37:57;102614.52;;;2.22;100.00
37878;BME280;23715;53.652;8.516;2023-01-26T02:42:58;102609.52;;;2.27;100.00
37878;BME280;23715;53.652;8.516;2023-01-26T02:47:58;102613.61;;;2.42;100.00
37878;BME280;23715;53.652;8.516;2023-01-26T02:53:01;102607.05;;;2.39;100.00
37878;BME280;23715;53.652;8.516;2023-01-26T02:58:03;102597.34;;;2.74;100.00
37878;BME280;23715;53.652;8.516;2023-01-26T03:03:09;102594.52;;;2.64;100.00
37878;BME280;23715;53.652;8.516;2023-01-26T03:08:08;102589.54;;;2.68;100.00
37878;BME280;23715;53.652;8.516;2023-01-26T03:13:09;102587.02;;;2.62;100.00
37878;BME280;23715;53.652;8.516;2023-01-26T03:18:09;102586.27;;;2.57;100.00
37878;BME280;23715;53.652;8.516;2023-01-26T03:23:28;102583.87;;;2.82;100.00
37878;BME280;23715;53.652;8.516;2023-01-26T03:28:47;102575.16;;;2.75;100.00
37878;BME280;23715;53.652;8.516;2023-01-26T03:33:47;102572.00;;;2.61;100.00
37878;BME280;23715;53.652;8.516;2023-01-26T03:38:48;102573.63;;;2.66;100.00
37878;BME280;23715;53.652;8.516;2023-01-26T03:43:49;102569.56;;;2.51;100.00
37878;BME280;23715;53.652;8.516;2023-01-26T03:49:08;102571.98;;;2.79;100.00
37878;BME280;23715;53.652;8.516;2023-01-26T03:54:26;102569.41;;;3.10;100.00
37878;BME280;23715;53.652;8.516;2023-01-26T03:59:46;102570.55;;;3.00;100.00
37878;BME280;23715;53.652;8.516;2023-01-26T04:04:49;102554.33;;;2.94;100.00
37878;BME280;23715;53.652;8.516;2023-01-26T04:10:09;102548.28;;;3.20;100.00
37878;BME280;23715;53.652;8.516;2023-01-26T04:15:09;102538.41;;;3.09;100.00
37878;BME280;23715;53.652;8.516;2023-01-26T04:20:28;102534.80;;;2.95;100.00
37878;BME280;23715;53.652;8.516;2023-01-26T04:25:47;102529.41;;;2.98;100.00
37878;BME280;23715;53.652;8.516;2023-01-26T04:30:48;102528.45;;;3.17;100.00
37878;BME280;23715;53.652;8.516;2023-01-26T04:35:50;102520.91;;;3.17;100.00
37878;BME280;23715;53.652;8.516;2023-01-26T04:40:54;102519.44;;;3.23;100.00
37878;BME280;23715;53.652;8.516;2023-01-26T04:46:04;102514.22;;;3.18;100.00
37878;BME280;23715;53.652;8.516;2023-01-26T04:51:12;102511.63;;;3.31;100.00
37878;BME280;23715;53.652;8.516;2023-01-26T04:56:27;102504.44;;;3.35;100.00
37878;BME280;23715;53.652;8.516;2023-01-26T05:01:29;102490.04;;;3.27;100.00
37878;BME280;23715;53.652;8.516;2023-01-26T05:06:30;102491.65;;;3.33;100.00
37878;BME280;23715;53.652;8.516;2023-01-26T05:11:31;102485.86;;;3.33;100.00
37878;BME280;23715;53.652;8.516;2023-01-26T05:16:42;102481.02;;;3.33;100.00
37878;BME280;23715;53.652;8.516;2023-01-26T05:21:52;102475.00;;;3.41;100.00
37878;BME280;23715;53.652;8.516;2023-01-26T05:26:54;102482.94;;;3.58;100.00
37878;BME280;23715;53.652;8.516;2023-01-26T05:31:56;102476.29;;;3.58;100.00
37878;BME280;23715;53.652;8.516;2023-01-26T05:36:56;102477.81;;;3.66;100.00
37878;BME280;23715;53.652;8.516;2023-01-26T05:41:57;102472.36;;;3.84;100.00
37878;BME280;23715;53.652;8.516;2023-01-26T05:47:15;102465.58;;;3.89;100.00
37878;BME280;23715;53.652;8.516;2023-01-26T05:52:20;102469.19;;;3.86;100.00
37878;BME280;23715;53.652;8.516;2023-01-26T05:57:22;102467.38;;;3.87;100.00
37878;BME280;23715;53.652;8.516;2023-01-26T06:02:24;102463.52;;;3.84;100.00
37878;BME280;23715;53.652;8.516;2023-01-26T06:07:27;102456.55;;;3.80;100.00
37878;BME280;23715;53.652;8.516;2023-01-26T06:12:29;102464.09;;;4.07;100.00
37878;BME280;23715;53.652;8.516;2023-01-26T06:17:33;102454.59;;;3.85;100.00
37878;BME280;23715;53.652;8.516;2023-01-26T06:22:35;102474.54;;;4.26;100.00
37878;BME280;23715;53.652;8.516;2023-01-26T06:27:35;102477.57;;;4.02;100.00
37878;BME280;23715;53.652;8.516;2023-01-26T06:32:39;102473.07;;;4.18;100.00
37878;BME280;23715;53.652;8.516;2023-01-26T06:37:40;102478.44;;;4.16;100.00
37878;BME280;23715;53.652;8.516;2023-01-26T06:42:46;102480.02;;;4.08;100.00
37878;BME280;23715;53.652;8.516;2023-01-26T06:47:49;102473.67;;;4.13;100.00
37878;BME280;23715;53.652;8.516;2023-01-26T06:52:54;102486.09;;;4.27;100.00
37878;BME280;23715;53.652;8.516;2023-01-26T06:58:03;102490.08;;;4.27;100.00
37878;BME280;23715;53.652;8.516;2023-01-26T07:03:05;102494.37;;;4.31;100.00
37878;BME280;23715;53.652;8.516;2023-01-26T07:08:05;102504.81;;;4.24;100.00
37878;BME280;23715;53.652;8.516;2023-01-26T07:13:07;102498.37;;;4.18;100.00
37878;BME280;23715;53.652;8.516;2023-01-26T07:18:07;102502.45;;;4.28;100.00
37878;BME280;23715;53.652;8.516;2023-01-26T07:23:08;102509.33;;;4.48;100.00
37878;BME280;23715;53.652;8.516;2023-01-26T07:28:09;102503.40;;;4.40;100.00
37878;BME280;23715;53.652;8.516;2023-01-26T07:33:09;102494.37;;;4.44;100.00
37878;BME280;23715;53.652;8.516;2023-01-26T07:38:10;102506.23;;;4.61;100.00
37878;BME280;23715;53.652;8.516;2023-01-26T07:43:10;102510.86;;;4.69;100.00
37878;BME280;23715;53.652;8.516;2023-01-26T07:48:23;102506.48;;;4.66;100.00
37878;BME280;23715;53.652;8.516;2023-01-26T07:53:23;102509.20;;;4.78;100.00
37878;BME280;23715;53.652;8.516;2023-01-26T07:58:25;102512.34;;;5.03;100.00
37878;BME280;23715;53.652;8.516;2023-01-26T08:03:26;102511.64;;;5.21;100.00
37878;BME280;23715;53.652;8.516;2023-01-26T08:08:27;102509.58;;;5.53;100.00
37878;BME280;23715;53.652;8.516;2023-01-26T08:13:28;102504.14;;;5.56;100.00
37878;BME280;23715;53.652;8.516;2023-01-26T08:18:30;102511.66;;;5.68;100.00
37878;BME280;23715;53.652;8.516;2023-01-26T08:23:30;102513.34;;;5.83;100.00
37878;BME280;23715;53.652;8.516;2023-01-26T08:28:32;102522.85;;;5.90;100.00
37878;BME280;23715;53.652;8.516;2023-01-26T08:33:33;102520.34;;;5.97;100.00
37878;BME280;23715;53.652;8.516;2023-01-26T08:38:34;102518.12;;;6.09;100.00
37878;BME280;23715;53.652;8.516;2023-01-26T08:43:35;102520.95;;;6.16;100.00
37878;BME280;23715;53.652;8.516;2023-01-26T08:48:35;102509.14;;;6.11;100.00
37878;BME280;23715;53.652;8.516;2023-01-26T08:53:37;102513.21;;;6.20;100.00
37878;BME280;23715;53.652;8.516;2023-01-26T08:58:37;102518.19;;;6.29;100.00
37878;BME280;23715;53.652;8.516;2023-01-26T09:03:38;102521.06;;;6.24;100.00
37878;BME280;23715;53.652;8.516;2023-01-26T09:08:37;102521.55;;;6.34;100.00
37878;BME280;23715;53.652;8.516;2023-01-26T09:13:38;102515.67;;;6.47;100.00
37878;BME280;23715;53.652;8.516;2023-01-26T09:18:38;102514.91;;;6.55;100.00
37878;BME280;23715;53.652;8.516;2023-01-26T09:23:38;102517.37;;;6.59;100.00
37878;BME280;23715;53.652;8.516;2023-01-26T09:28:38;102521.80;;;6.71;100.00
37878;BME280;23715;53.652;8.516;2023-01-26T09:33:39;102507.97;;;6.81;100.00
37878;BME280;23715;53.652;8.516;2023-01-26T09:38:38;102509.84;;;6.79;100.00
37878;BME280;23715;53.652;8.516;2023-01-26T09:43:49;102508.09;;;6.78;100.00
37878;BME280;23715;53.652;8.516;2023-01-26T09:49:04;102504.82;;;6.82;100.00
37878;BME280;23715;53.652;8.516;2023-01-26T09:54:20;102506.69;;;6.80;100.00
37878;BME280;23715;53.652;8.516;2023-01-26T09:59:29;102506.89;;;6.86;100.00
37878;BME280;23715;53.652;8.516;2023-01-26T10:09:40;102517.72;;;6.72;100.00
37878;BME280;23715;53.652;8.516;2023-01-26T10:15:06;102521.67;;;6.74;100.00
37878;BME280;23715;53.652;8.516;2023-01-26T10:19:49;102523.33;;;6.87;100.00
37878;BME280;23715;53.652;8.516;2023-01-26T10:24:51;102529.69;;;7.04;100.00
37878;BME280;23715;53.652;8.516;2023-01-26T10:29:52;102534.70;;;7.12;100.00
37878;BME280;23715;53.652;8.516;2023-01-26T10:34:52;102524.32;;;7.15;100.00
37878;BME280;23715;53.652;8.516;2023-01-26T10:39:56;102537.66;;;7.06;100.00
37878;BME280;23715;53.652;8.516;2023-01-26T10:44:59;102533.50;;;7.19;100.00
37878;BME280;23715;53.652;8.516;2023-01-26T10:50:21;102546.88;;;7.19;100.00
37878;BME280;23715;53.652;8.516;2023-01-26T10:55:21;102570.00;;;7.20;100.00
37878;BME280;23715;53.652;8.516;2023-01-26T11:00:27;102577.13;;;7.51;100.00
37878;BME280;23715;53.652;8.516;2023-01-26T11:05:27;102566.45;;;7.70;100.00
37878;BME280;23715;53.652;8.516;2023-01-26T11:10:39;102581.34;;;7.67;100.00
37878;BME280;23715;53.652;8.516;2023-01-26T11:15:43;102575.56;;;7.66;100.00
37878;BME280;23715;53.652;8.516;2023-01-26T11:21:05;102580.00;;;7.67;100.00
37878;BME280;23715;53.652;8.516;2023-01-26T11:31:24;102579.83;;;7.80;100.00
37878;BME280;23715;53.652;8.516;2023-01-26T12:02:38;102557.38;;;8.01;100.00
37878;BME280;23715;53.652;8.516;2023-01-26T12:07:56;102552.31;;;7.95;100.00
37878;BME280;23715;53.652;8.516;2023-01-26T12:13:15;102551.91;;;7.94;100.00
37878;BME280;23715;53.652;8.516;2023-01-26T12:18:21;102554.14;;;7.66;100.00
37878;BME280;23715;53.652;8.516;2023-01-26T12:28:43;102564.30;;;7.97;100.00
37878;BME280;23715;53.652;8.516;2023-01-26T12:33:44;102553.77;;;7.84;100.00
37878;BME280;23715;53.652;8.516;2023-01-26T12:49:34;102563.77;;;7.70;100.00
37878;BME280;23715;53.652;8.516;2023-01-26T12:54:47;102553.95;;;7.60;100.00
37878;BME280;23715;53.652;8.516;2023-01-26T12:59:42;102551.67;;;7.42;100.00
37878;BME280;23715;53.652;8.516;2023-01-26T13:04:44;102534.65;;;7.53;100.00
37878;BME280;23715;53.652;8.516;2023-01-26T13:14:59;102504.13;;;7.85;100.00
37878;BME280;23715;53.652;8.516;2023-01-26T13:20:14;102500.65;;;7.83;100.00
37878;BME280;23715;53.652;8.516;2023-01-26T13:25:31;102503.56;;;7.78;100.00
37878;BME280;23715;53.652;8.516;2023-01-26T13:30:38;102497.23;;;7.98;100.00
37878;BME280;23715;53.652;8.516;2023-01-26T13:35:36;102492.02;;;7.68;100.00
37878;BME280;23715;53.652;8.516;2023-01-26T13:40:45;102490.13;;;7.62;100.00
37878;BME280;23715;53.652;8.516;2023-01-26T13:51:33;102476.55;;;7.45;100.00
37878;BME280;23715;53.652;8.516;2023-01-26T13:56:33;102465.03;;;7.34;100.00
37878;BME280;23715;53.652;8.516;2023-01-26T14:01:38;102465.48;;;7.34;100.00
37878;BME280;23715;53.652;8.516;2023-01-26T14:06:36;102457.75;;;7.47;100.00
37878;BME280;23715;53.652;8.516;2023-01-26T14:11:37;102447.82;;;7.40;100.00
37878;BME280;23715;53.652;8.516;2023-01-26T14:16:38;102451.42;;;7.39;100.00
37878;BME280;23715;53.652;8.516;2023-01-26T14:21:56;102438.70;;;7.15;100.00
37878;BME280;23715;53.652;8.516;2023-01-26T14:27:00;102412.84;;;7.34;100.00
37878;BME280;23715;53.652;8.516;2023-01-26T14:32:02;102412.84;;;7.34;100.00
37878;BME280;23715;53.652;8.516;2023-01-26T14:37:14;102402.16;;;7.43;100.00
37878;BME280;23715;53.652;8.516;2023-01-26T14:42:17;102398.66;;;7.51;100.00
37878;BME280;23715;53.652;8.516;2023-01-26T14:47:26;102407.17;;;7.59;100.00
37878;BME280;23715;53.652;8.516;2023-01-26T14:52:33;102402.81;;;7.57;100.00
37878;BME280;23715;53.652;8.516;2023-01-26T14:57:38;102397.39;;;7.86;100.00
37878;BME280;23715;53.652;8.516;2023-01-26T15:02:43;102401.72;;;7.89;100.00
37878;BME280;23715;53.652;8.516;2023-01-26T15:07:56;102401.78;;;7.87;100.00
37878;BME280;23715;53.652;8.516;2023-01-26T15:18:20;102405.59;;;8.00;100.00
37878;BME280;23715;53.652;8.516;2023-01-26T15:23:23;102399.85;;;7.99;100.00
37878;BME280;23715;53.652;8.516;2023-01-26T15:28:25;102402.65;;;7.79;100.00
37878;BME280;23715;53.652;8.516;2023-01-26T15:33:46;102409.86;;;7.68;100.00
37878;BME280;23715;53.652;8.516;2023-01-26T15:38:58;102407.31;;;7.56;100.00
37878;BME280;23715;53.652;8.516;2023-01-26T15:43:59;102420.93;;;6.74;100.00
37878;BME280;23715;53.652;8.516;2023-01-26T15:48:59;102429.22;;;6.58;100.00
37878;BME280;23715;53.652;8.516;2023-01-26T15:54:00;102453.09;;;6.83;100.00
37878;BME280;23715;53.652;8.516;2023-01-26T15:59:00;102455.56;;;6.77;100.00
37878;BME280;23715;53.652;8.516;2023-01-26T16:04:00;102452.49;;;7.06;100.00
37878;BME280;23715;53.652;8.516;2023-01-26T16:09:01;102467.45;;;6.91;100.00
37878;BME280;23715;53.652;8.516;2023-01-26T16:14:01;102469.23;;;6.90;100.00
37878;BME280;23715;53.652;8.516;2023-01-26T16:19:01;102469.82;;;7.07;100.00
37878;BME280;23715;53.652;8.516;2023-01-26T16:24:02;102469.56;;;7.03;100.00
37878;BME280;23715;53.652;8.516;2023-01-26T16:29:02;102486.28;;;6.98;100.00
37878;BME280;23715;53.652;8.516;2023-01-26T16:34:03;102500.05;;;7.09;100.00
37878;BME280;23715;53.652;8.516;2023-01-26T16:39:04;102506.34;;;6.98;100.00
37878;BME280;23715;53.652;8.516;2023-01-26T16:44:11;102517.04;;;6.98;100.00
37878;BME280;23715;53.652;8.516;2023-01-26T16:49:12;102526.88;;;7.18;100.00
37878;BME280;23715;53.652;8.516;2023-01-26T16:54:14;102526.66;;;7.33;100.00
37878;BME280;23715;53.652;8.516;2023-01-26T16:59:14;102520.70;;;7.26;100.00
37878;BME280;23715;53.652;8.516;2023-01-26T17:04:14;102516.58;;;7.48;100.00
37878;BME280;23715;53.652;8.516;2023-01-26T17:09:14;102512.95;;;7.49;100.00
37878;BME280;23715;53.652;8.516;2023-01-26T17:14:14;102521.05;;;7.29;100.00
37878;BME280;23715;53.652;8.516;2023-01-26T17:19:15;102527.45;;;7.24;100.00
37878;BME280;23715;53.652;8.516;2023-01-26T17:24:15;102532.64;;;6.98;100.00
37878;BME280;23715;53.652;8.516;2023-01-26T17:29:15;102534.81;;;7.30;100.00
37878;BME280;23715;53.652;8.516;2023-01-26T17:34:16;102541.09;;;7.39;100.00
37878;BME280;23715;53.652;8.516;2023-01-26T17:39:17;102529.84;;;7.41;100.00
37878;BME280;23715;53.652;8.516;2023-01-26T17:44:22;102531.02;;;7.54;100.00
37878;BME280;23715;53.652;8.516;2023-01-26T17:49:22;102524.32;;;7.54;100.00
37878;BME280;23715;53.652;8.516;2023-01-26T17:54:23;102522.25;;;7.51;100.00
37878;BME280;23715;53.652;8.516;2023-01-26T17:59:24;102533.47;;;7.40;100.00
37878;BME280;23715;53.652;8.516;2023-01-26T18:04:24;102539.23;;;7.20;100.00
37878;BME280;23715;53.652;8.516;2023-01-26T18:09:25;102540.23;;;6.77;100.00
37878;BME280;23715;53.652;8.516;2023-01-26T18:14:25;102543.66;;;7.01;100.00
37878;BME280;23715;53.652;8.516;2023-01-26T18:19:26;102554.00;;;6.68;100.00
37878;BME280;23715;53.652;8.516;2023-01-26T18:24:26;102565.06;;;6.48;100.00
37878;BME280;23715;53.652;8.516;2023-01-26T18:29:26;102572.00;;;6.64;100.00
37878;BME280;23715;53.652;8.516;2023-01-26T18:34:27;102583.59;;;6.95;100.00
37878;BME280;23715;53.652;8.516;2023-01-26T18:39:27;102594.09;;;7.10;100.00
37878;BME280;23715;53.652;8.516;2023-01-26T18:44:28;102594.15;;;7.19;100.00
37878;BME280;23715;53.652;8.516;2023-01-26T18:49:28;102599.23;;;7.15;100.00
37878;BME280;23715;53.652;8.516;2023-01-26T18:54:28;102606.53;;;7.01;100.00
37878;BME280;23715;53.652;8.516;2023-01-26T18:59:29;102606.80;;;7.05;100.00
37878;BME280;23715;53.652;8.516;2023-01-26T19:04:29;102598.09;;;7.00;100.00
37878;BME280;23715;53.652;8.516;2023-01-26T19:09:30;102610.21;;;7.09;100.00
37878;BME280;23715;53.652;8.516;2023-01-26T19:14:32;102611.88;;;7.11;100.00
37878;BME280;23715;53.652;8.516;2023-01-26T19:19:33;102610.41;;;7.24;100.00
37878;BME280;23715;53.652;8.516;2023-01-26T19:24:34;102599.90;;;7.30;100.00
37878;BME280;23715;53.652;8.516;2023-01-26T19:29:34;102607.28;;;7.25;100.00
37878;BME280;23715;53.652;8.516;2023-01-26T19:34:34;102610.41;;;7.24;100.00
37878;BME280;23715;53.652;8.516;2023-01-26T19:39:34;102607.73;;;7.24;100.00
37878;BME280;23715;53.652;8.516;2023-01-26T19:44:34;102607.67;;;7.16;100.00
37878;BME280;23715;53.652;8.516;2023-01-26T19:49:35;102610.06;;;7.01;100.00
37878;BME280;23715;53.652;8.516;2023-01-26T19:54:35;102619.78;;;7.04;100.00
37878;BME280;23715;53.652;8.516;2023-01-26T19:59:35;102622.31;;;7.07;100.00
37878;BME280;23715;53.652;8.516;2023-01-26T20:04:35;102623.70;;;7.06;100.00
37878;BME280;23715;53.652;8.516;2023-01-26T20:09:35;102634.29;;;7.09;100.00
37878;BME280;23715;53.652;8.516;2023-01-26T20:14:35;102641.13;;;7.16;100.00
37878;BME280;23715;53.652;8.516;2023-01-26T20:19:36;102636.98;;;6.87;100.00
37878;BME280;23715;53.652;8.516;2023-01-26T20:24:37;102644.39;;;7.02;100.00
37878;BME280;23715;53.652;8.516;2023-01-26T20:29:38;102642.64;;;6.91;100.00
37878;BME280;23715;53.652;8.516;2023-01-26T20:34:38;102646.45;;;6.73;100.00
37878;BME280;23715;53.652;8.516;2023-01-26T20:39:39;102653.28;;;6.70;100.00
37878;BME280;23715;53.652;8.516;2023-01-26T20:44:39;102658.47;;;6.85;100.00
37878;BME280;23715;53.652;8.516;2023-01-26T20:49:40;102671.38;;;6.96;100.00
37878;BME280;23715;53.652;8.516;2023-01-26T20:54:40;102675.86;;;6.85;100.00
37878;BME280;23715;53.652;8.516;2023-01-26T20:59:40;102672.97;;;6.79;100.00
37878;BME280;23715;53.652;8.516;2023-01-26T21:04:40;102669.88;;;6.78;100.00
37878;BME280;23715;53.652;8.516;2023-01-26T21:09:40;102674.84;;;6.88;100.00
37878;BME280;23715;53.652;8.516;2023-01-26T21:14:40;102688.00;;;6.82;100.00
37878;BME280;23715;53.652;8.516;2023-01-26T21:19:40;102677.73;;;6.93;100.00
37878;BME280;23715;53.652;8.516;2023-01-26T21:24:41;102679.02;;;6.95;100.00
37878;BME280;23715;53.652;8.516;2023-01-26T21:29:41;102680.47;;;6.92;100.00
37878;BME280;23715;53.652;8.516;2023-01-26T21:34:42;102683.45;;;7.06;100.00
37878;BME280;23715;53.652;8.516;2023-01-26T21:39:41;102678.38;;;7.10;100.00
37878;BME280;23715;53.652;8.516;2023-01-26T21:44:42;102679.17;;;7.02;100.00
37878;BME280;23715;53.652;8.516;2023-01-26T21:49:56;102673.02;;;7.10;100.00
37878;BME280;23715;53.652;8.516;2023-01-26T21:54:57;102672.07;;;7.11;100.00
37878;BME280;23715;53.652;8.516;2023-01-26T21:59:58;102674.36;;;7.10;100.00
37878;BME280;23715;53.652;8.516;2023-01-26T22:04:58;102669.81;;;7.12;100.00
37878;BME280;23715;53.652;8.516;2023-01-26T22:09:59;102659.47;;;7.25;100.00
37878;BME280;23715;53.652;8.516;2023-01-26T22:14:58;102665.47;;;7.30;100.00
37878;BME280;23715;53.652;8.516;2023-01-26T22:19:59;102665.20;;;7.26;100.00
37878;BME280;23715;53.652;8.516;2023-01-26T22:24:59;102671.72;;;7.31;100.00
37878;BME280;23715;53.652;8.516;2023-01-26T22:30:00;102677.72;;;7.36;100.00
37878;BME280;23715;53.652;8.516;2023-01-26T22:35:00;102674.80;;;7.42;100.00
37878;BME280;23715;53.652;8.516;2023-01-26T22:40:01;102669.98;;;7.40;100.00
37878;BME280;23715;53.652;8.516;2023-01-26T22:45:02;102665.97;;;7.40;100.00
37878;BME280;23715;53.652;8.516;2023-01-26T22:50:06;102682.14;;;7.47;100.00
37878;BME280;23715;53.652;8.516;2023-01-26T22:55:07;102659.52;;;7.34;100.00
37878;BME280;23715;53.652;8.516;2023-01-26T23:00:09;102670.89;;;7.49;100.00
37878;BME280;23715;53.652;8.516;2023-01-26T23:05:10;102675.27;;;7.52;100.00
37878;BME280;23715;53.652;8.516;2023-01-26T23:10:10;102679.14;;;7.45;100.00
37878;BME280;23715;53.652;8.516;2023-01-26T23:15:10;102675.45;;;7.47;100.00
37878;BME280;23715;53.652;8.516;2023-01-26T23:20:11;102678.68;;;7.55;100.00
37878;BME280;23715;53.652;8.516;2023-01-26T23:25:12;102685.17;;;7.50;100.00
37878;BME280;23715;53.652;8.516;2023-01-26T23:30:30;102685.77;;;7.46;100.00
37878;BME280;23715;53.652;8.516;2023-01-26T23:35:31;102685.77;;;7.46;100.00
37878;BME280;23715;53.652;8.516;2023-01-26T23:40:32;102687.84;;;7.50;100.00
37878;BME280;23715;53.652;8.516;2023-01-26T23:45:33;102684.28;;;7.49;100.00
37878;BME280;23715;53.652;8.516;2023-01-26T23:50:33;102685.23;;;7.48;100.00
37878;BME280;23715;53.652;8.516;2023-01-26T23:55:34;102679.48;;;7.57;100.00
